sensor_id;sensor_type;location;lat;lon;timestamp;pressure;altitude;pressure_sealevel;temperature;humidity
7966;BME280;4028;43.272;26.932;2022-10-16T00:00:33;99903.41;;;10.53;100.00
7966;BME280;4028;43.272;26.932;2022-10-16T00:02:59;99909.34;;;10.45;100.00
7966;BME280;4028;43.272;26.932;2022-10-16T00:05:25;99890.72;;;10.35;100.00
7966;BME280;4028;43.272;26.932;2022-10-16T00:07:50;99910.88;;;10.48;100.00
7966;BME280;4028;43.272;26.932;2022-10-16T00:10:16;99912.34;;;10.40;100.00
7966;BME280;4028;43.272;26.932;2022-10-16T00:12:41;99906.31;;;10.38;100.00
7966;BME280;4028;43.272;26.932;2022-10-16T00:15:07;99925.69;;;10.50;100.00
7966;BME280;4028;43.272;26.932;2022-10-16T00:17:33;99928.94;;;10.43;100.00
7966;BME280;4028;43.272;26.932;2022-10-16T00:19:58;99908.75;;;10.30;100.00
7966;BME280;4028;43.272;26.932;2022-10-16T00:22:24;99922.69;;;10.32;100.00
7966;BME280;4028;43.272;26.932;2022-10-16T00:24:49;99931.38;;;10.34;100.00
7966;BME280;4028;43.272;26.932;2022-10-16T00:27:15;99928.81;;;10.33;100.00
7966;BME280;4028;43.272;26.932;2022-10-16T00:29:41;99926.31;;;10.31;100.00
7966;BME280;4028;43.272;26.932;2022-10-16T00:32:06;99935.34;;;10.29;100.00
7966;BME280;4028;43.272;26.932;2022-10-16T00:34:32;99925.34;;;10.21;100.00
7966;BME280;4028;43.272;26.932;2022-10-16T00:36:57;99934.88;;;10.24;100.00
7966;BME280;4028;43.272;26.932;2022-10-16T00:39:23;99936.88;;;10.20;100.00
7966;BME280;4028;43.272;26.932;2022-10-16T00:41:50;99941.44;;;10.18;100.00
7966;BME280;4028;43.272;26.932;2022-10-16T00:45:08;99894.09;;;9.93;100.00
7966;BME280;4028;43.272;26.932;2022-10-16T00:47:34;99933.75;;;10.15;100.00
7966;BME280;4028;43.272;26.932;2022-10-16T00:50:08;99929.66;;;10.11;100.00
7966;BME280;4028;43.272;26.932;2022-10-16T00:52:35;99939.53;;;10.09;100.00
7966;BME280;4028;43.272;26.932;2022-10-16T00:55:03;99936.66;;;10.01;100.00
7966;BME280;4028;43.272;26.932;2022-10-16T00:57:29;99933.03;;;10.02;100.00
7966;BME280;4028;43.272;26.932;2022-10-16T00:59:55;99933.41;;;9.97;100.00
7966;BME280;4028;43.272;26.932;2022-10-16T01:02:22;99929.81;;;9.98;100.00
7966;BME280;4028;43.272;26.932;2022-10-16T01:04:50;99937.13;;;9.95;100.00
7966;BME280;4028;43.272;26.932;2022-10-16T01:13:13;99936.03;;;9.86;100.00
7966;BME280;4028;43.272;26.932;2022-10-16T01:15:59;99942.78;;;9.90;100.00
7966;BME280;4028;43.272;26.932;2022-10-16T01:18:43;99932.91;;;9.81;100.00
7966;BME280;4028;43.272;26.932;2022-10-16T01:21:18;99942.66;;;9.80;100.00
7966;BME280;4028;43.272;26.932;2022-10-16T01:32:07;99929.19;;;9.61;100.00
7966;BME280;4028;43.272;26.932;2022-10-16T01:34:38;99951.78;;;9.76;100.00
7966;BME280;4028;43.272;26.932;2022-10-16T01:37:15;99957.31;;;9.73;100.00
7966;BME280;4028;43.272;26.932;2022-10-16T01:39:42;99958.88;;;9.64;100.00
7966;BME280;4028;43.272;26.932;2022-10-16T01:42:23;99946.13;;;9.58;100.00
7966;BME280;4028;43.272;26.932;2022-10-16T01:44:51;99958.59;;;9.56;100.00
7966;BME280;4028;43.272;26.932;2022-10-16T01:47:21;99960.41;;;9.56;100.00
7966;BME280;4028;43.272;26.932;2022-10-16T01:49:47;99958.94;;;9.52;100.00
7966;BME280;4028;43.272;26.932;2022-10-16T01:52:17;99955.22;;;9.43;100.00
7966;BME280;4028;43.272;26.932;2022-10-16T01:54:47;99963.88;;;9.45;100.00
7966;BME280;4028;43.272;26.932;2022-10-16T01:57:15;99959.41;;;9.46;100.00
7966;BME280;4028;43.272;26.932;2022-10-16T01:59:47;99961.47;;;9.42;100.00
7966;BME280;4028;43.272;26.932;2022-10-16T02:02:15;99966.84;;;9.41;100.00
7966;BME280;4028;43.272;26.932;2022-10-16T02:04:48;99961.50;;;9.53;100.00
7966;BME280;4028;43.272;26.932;2022-10-16T02:07:16;99961.59;;;9.52;100.00
7966;BME280;4028;43.272;26.932;2022-10-16T02:09:42;99952.47;;;9.45;100.00
7966;BME280;4028;43.272;26.932;2022-10-16T02:12:15;99962.31;;;9.43;100.00
7966;BME280;4028;43.272;26.932;2022-10-16T02:14:44;99954.03;;;9.47;100.00
7966;BME280;4028;43.272;26.932;2022-10-16T02:17:16;99961.47;;;9.42;100.00
7966;BME280;4028;43.272;26.932;2022-10-16T02:19:42;99954.25;;;9.33;100.00
7966;BME280;4028;43.272;26.932;2022-10-16T02:22:13;99966.34;;;9.35;100.00
7966;BME280;4028;43.272;26.932;2022-10-16T02:27:26;99960.59;;;9.30;100.00
7966;BME280;4028;43.272;26.932;2022-10-16T02:29:58;99968.50;;;9.30;100.00
7966;BME280;4028;43.272;26.932;2022-10-16T02:32:30;99971.16;;;9.30;100.00
7966;BME280;4028;43.272;26.932;2022-10-16T02:34:57;99957.41;;;9.14;100.00
7966;BME280;4028;43.272;26.932;2022-10-16T02:37:24;99971.94;;;9.20;100.00
7966;BME280;4028;43.272;26.932;2022-10-16T02:39:51;99966.06;;;9.16;100.00
7966;BME280;4028;43.272;26.932;2022-10-16T02:42:17;99967.84;;;9.16;100.00
7966;BME280;4028;43.272;26.932;2022-10-16T02:44:43;99970.00;;;9.10;100.00
7966;BME280;4028;43.272;26.932;2022-10-16T02:47:09;99974.94;;;9.15;100.00
7966;BME280;4028;43.272;26.932;2022-10-16T02:49:34;99983.94;;;9.13;100.00
7966;BME280;4028;43.272;26.932;2022-10-16T02:52:00;99974.44;;;9.10;100.00
7966;BME280;4028;43.272;26.932;2022-10-16T02:54:26;99975.28;;;9.10;100.00
7966;BME280;4028;43.272;26.932;2022-10-16T02:56:51;99979.13;;;9.06;100.00
7966;BME280;4028;43.272;26.932;2022-10-16T02:59:17;99981.84;;;9.05;100.00
7966;BME280;4028;43.272;26.932;2022-10-16T03:01:42;99966.59;;;8.97;100.00
7966;BME280;4028;43.272;26.932;2022-10-16T03:04:08;99979.56;;;9.00;100.00
7966;BME280;4028;43.272;26.932;2022-10-16T03:06:34;99986.28;;;9.04;100.00
7966;BME280;4028;43.272;26.932;2022-10-16T03:08:59;99988.44;;;8.99;100.00
7966;BME280;4028;43.272;26.932;2022-10-16T03:11:25;99984.69;;;8.91;100.00
7966;BME280;4028;43.272;26.932;2022-10-16T03:13:51;99986.38;;;8.92;100.00
7966;BME280;4028;43.272;26.932;2022-10-16T03:16:17;99988.50;;;8.87;100.00
7966;BME280;4028;43.272;26.932;2022-10-16T03:18:42;99973.34;;;8.77;100.00
7966;BME280;4028;43.272;26.932;2022-10-16T03:21:08;99989.84;;;8.92;100.00
7966;BME280;4028;43.272;26.932;2022-10-16T03:23:33;99989.59;;;8.95;100.00
7966;BME280;4028;43.272;26.932;2022-10-16T03:25:58;99988.25;;;8.90;100.00
7966;BME280;4028;43.272;26.932;2022-10-16T03:28:24;99979.91;;;8.96;100.00
7966;BME280;4028;43.272;26.932;2022-10-16T03:30:49;99996.59;;;8.96;100.00
7966;BME280;4028;43.272;26.932;2022-10-16T03:33:15;99992.69;;;8.89;100.00
7966;BME280;4028;43.272;26.932;2022-10-16T03:35:40;99986.59;;;8.89;100.00
7966;BME280;4028;43.272;26.932;2022-10-16T03:38:06;99987.44;;;8.89;100.00
7966;BME280;4028;43.272;26.932;2022-10-16T03:40:31;99991.88;;;8.89;100.00
7966;BME280;4028;43.272;26.932;2022-10-16T03:42:57;99990.91;;;8.90;100.00
7966;BME280;4028;43.272;26.932;2022-10-16T03:45:24;99991.03;;;8.88;100.00
7966;BME280;4028;43.272;26.932;2022-10-16T03:47:49;99991.47;;;8.82;100.00
7966;BME280;4028;43.272;26.932;2022-10-16T03:50:15;99988.97;;;8.80;100.00
7966;BME280;4028;43.272;26.932;2022-10-16T03:52:41;99989.28;;;8.76;100.00
7966;BME280;4028;43.272;26.932;2022-10-16T03:55:06;99993.38;;;8.80;100.00
7966;BME280;4028;43.272;26.932;2022-10-16T03:57:32;99981.81;;;8.70;100.00
7966;BME280;4028;43.272;26.932;2022-10-16T03:59:58;99988.59;;;8.85;100.00
7966;BME280;4028;43.272;26.932;2022-10-16T04:02:23;99991.03;;;8.88;100.00
7966;BME280;4028;43.272;26.932;2022-10-16T04:04:49;99987.50;;;8.76;100.00
7966;BME280;4028;43.272;26.932;2022-10-16T04:07:14;99996.88;;;8.80;100.00
7966;BME280;4028;43.272;26.932;2022-10-16T04:09:40;99988.09;;;8.80;100.00
7966;BME280;4028;43.272;26.932;2022-10-16T04:12:05;99990.66;;;8.81;100.00
7966;BME280;4028;43.272;26.932;2022-10-16T04:14:31;99969.25;;;8.73;100.00
7966;BME280;4028;43.272;26.932;2022-10-16T04:16:56;99989.06;;;8.79;100.00
7966;BME280;4028;43.272;26.932;2022-10-16T04:19:22;99995.09;;;8.81;100.00
7966;BME280;4028;43.272;26.932;2022-10-16T04:21:47;99990.13;;;8.76;100.00
7966;BME280;4028;43.272;26.932;2022-10-16T04:24:13;99977.59;;;8.67;100.00
7966;BME280;4028;43.272;26.932;2022-10-16T04:26:38;99992.53;;;8.79;100.00
7966;BME280;4028;43.272;26.932;2022-10-16T04:29:04;99985.38;;;8.81;100.00
7966;BME280;4028;43.272;26.932;2022-10-16T04:31:29;99988.09;;;8.80;100.00
7966;BME280;4028;43.272;26.932;2022-10-16T04:33:55;100005.72;;;8.79;100.00
7966;BME280;4028;43.272;26.932;2022-10-16T04:36:20;100001.41;;;8.78;100.00
7966;BME280;4028;43.272;26.932;2022-10-16T04:38:46;100002.38;;;8.77;100.00
7966;BME280;4028;43.272;26.932;2022-10-16T04:41:11;100006.69;;;8.78;100.00
7966;BME280;4028;43.272;26.932;2022-10-16T04:43:37;100013.88;;;8.76;100.00
7966;BME280;4028;43.272;26.932;2022-10-16T04:46:02;100005.47;;;8.71;100.00
7966;BME280;4028;43.272;26.932;2022-10-16T04:48:30;100021.81;;;8.76;100.00
7966;BME280;4028;43.272;26.932;2022-10-16T04:50:55;100025.78;;;8.82;100.00
7966;BME280;4028;43.272;26.932;2022-10-16T04:53:21;100027.41;;;8.72;100.00
7966;BME280;4028;43.272;26.932;2022-10-16T04:55:47;100011.41;;;8.62;100.00
7966;BME280;4028;43.272;26.932;2022-10-16T04:58:12;100029.47;;;8.79;100.00
7966;BME280;4028;43.272;26.932;2022-10-16T05:00:38;100025.81;;;8.69;100.00
7966;BME280;4028;43.272;26.932;2022-10-16T05:03:03;100031.22;;;8.68;100.00
7966;BME280;4028;43.272;26.932;2022-10-16T05:05:32;100035.66;;;8.67;100.00
7966;BME280;4028;43.272;26.932;2022-10-16T05:07:58;100021.88;;;8.51;100.00
7966;BME280;4028;43.272;26.932;2022-10-16T05:10:24;100040.72;;;8.70;100.00
7966;BME280;4028;43.272;26.932;2022-10-16T05:12:49;100041.13;;;8.64;100.00
7966;BME280;4028;43.272;26.932;2022-10-16T05:15:16;100040.84;;;8.56;100.00
7966;BME280;4028;43.272;26.932;2022-10-16T05:17:42;100048.34;;;8.62;100.00
7966;BME280;4028;43.272;26.932;2022-10-16T05:20:07;100047.75;;;8.70;100.00
7966;BME280;4028;43.272;26.932;2022-10-16T05:22:33;100036.81;;;8.63;100.00
7966;BME280;4028;43.272;26.932;2022-10-16T05:24:58;100043.34;;;8.70;100.00
7966;BME280;4028;43.272;26.932;2022-10-16T05:27:24;100045.44;;;8.78;100.00
7966;BME280;4028;43.272;26.932;2022-10-16T05:29:49;100055.78;;;8.81;100.00
7966;BME280;4028;43.272;26.932;2022-10-16T05:32:16;100056.91;;;8.90;100.00
7966;BME280;4028;43.272;26.932;2022-10-16T05:34:42;100060.88;;;8.95;100.00
7966;BME280;4028;43.272;26.932;2022-10-16T05:37:07;100068.25;;;9.03;100.00
7966;BME280;4028;43.272;26.932;2022-10-16T05:39:33;100076.06;;;9.04;100.00
7966;BME280;4028;43.272;26.932;2022-10-16T05:41:59;100071.19;;;9.11;100.00
7966;BME280;4028;43.272;26.932;2022-10-16T05:44:24;100071.06;;;9.13;100.00
7966;BME280;4028;43.272;26.932;2022-10-16T05:46:50;100077.69;;;9.18;100.00
7966;BME280;4028;43.272;26.932;2022-10-16T05:49:15;100081.22;;;9.30;100.00
7966;BME280;4028;43.272;26.932;2022-10-16T05:51:41;100073.44;;;9.28;100.00
7966;BME280;4028;43.272;26.932;2022-10-16T05:54:07;100088.81;;;9.34;100.00
7966;BME280;4028;43.272;26.932;2022-10-16T05:56:33;100083.59;;;9.46;100.00
7966;BME280;4028;43.272;26.932;2022-10-16T05:58:58;100088.56;;;9.61;100.00
7966;BME280;4028;43.272;26.932;2022-10-16T06:01:24;100090.88;;;9.66;100.00
7966;BME280;4028;43.272;26.932;2022-10-16T06:03:51;100077.19;;;9.72;100.00
7966;BME280;4028;43.272;26.932;2022-10-16T06:06:19;100081.75;;;9.70;100.00
7966;BME280;4028;43.272;26.932;2022-10-16T06:08:46;100090.56;;;9.82;100.00
7966;BME280;4028;43.272;26.932;2022-10-16T06:11:18;100092.25;;;9.83;100.00
7966;BME280;4028;43.272;26.932;2022-10-16T06:13:44;100089.50;;;9.96;100.00
7966;BME280;4028;43.272;26.932;2022-10-16T06:16:11;100096.91;;;10.14;100.00
7966;BME280;4028;43.272;26.932;2022-10-16T06:18:37;100095.00;;;10.28;100.00
7966;BME280;4028;43.272;26.932;2022-10-16T06:21:17;100098.53;;;10.51;100.00
7966;BME280;4028;43.272;26.932;2022-10-16T06:23:43;100093.06;;;10.75;100.00
7966;BME280;4028;43.272;26.932;2022-10-16T06:26:11;100104.94;;;11.14;100.00
7966;BME280;4028;43.272;26.932;2022-10-16T06:28:37;100109.88;;;11.62;100.00
7966;BME280;4028;43.272;26.932;2022-10-16T06:31:04;100111.84;;;12.53;100.00
7966;BME280;4028;43.272;26.932;2022-10-16T06:33:30;100103.47;;;13.58;100.00
7966;BME280;4028;43.272;26.932;2022-10-16T06:36:04;100109.88;;;14.97;100.00
7966;BME280;4028;43.272;26.932;2022-10-16T06:38:30;100109.03;;;16.22;73.71
7966;BME280;4028;43.272;26.932;2022-10-16T06:40:56;100115.53;;;17.05;64.91
7966;BME280;4028;43.272;26.932;2022-10-16T06:43:22;100119.03;;;17.73;60.08
7966;BME280;4028;43.272;26.932;2022-10-16T06:45:57;100106.31;;;18.24;56.42
7966;BME280;4028;43.272;26.932;2022-10-16T06:48:23;100129.78;;;18.85;53.66
7966;BME280;4028;43.272;26.932;2022-10-16T06:53:31;100136.06;;;19.40;52.50
7966;BME280;4028;43.272;26.932;2022-10-16T06:55:57;100138.19;;;19.76;50.18
7966;BME280;4028;43.272;26.932;2022-10-16T06:58:22;100131.44;;;19.57;49.29
7966;BME280;4028;43.272;26.932;2022-10-16T07:00:49;100127.16;;;20.46;48.52
7966;BME280;4028;43.272;26.932;2022-10-16T07:03:14;100138.00;;;21.26;47.14
7966;BME280;4028;43.272;26.932;2022-10-16T07:05:41;100148.78;;;21.84;44.91
7966;BME280;4028;43.272;26.932;2022-10-16T07:08:07;100153.53;;;22.25;43.60
7966;BME280;4028;43.272;26.932;2022-10-16T07:10:34;100155.56;;;21.59;44.75
7966;BME280;4028;43.272;26.932;2022-10-16T07:12:59;100154.91;;;21.35;46.41
7966;BME280;4028;43.272;26.932;2022-10-16T07:15:25;100148.47;;;21.51;44.77
7966;BME280;4028;43.272;26.932;2022-10-16T07:17:51;100154.94;;;21.99;44.63
7966;BME280;4028;43.272;26.932;2022-10-16T07:20:17;100147.13;;;22.54;42.87
7966;BME280;4028;43.272;26.932;2022-10-16T07:22:43;100159.66;;;22.96;42.52
7966;BME280;4028;43.272;26.932;2022-10-16T07:25:09;100152.09;;;23.26;40.78
7966;BME280;4028;43.272;26.932;2022-10-16T07:27:34;100161.19;;;23.80;39.52
7966;BME280;4028;43.272;26.932;2022-10-16T07:30:00;100161.63;;;23.83;38.93
7966;BME280;4028;43.272;26.932;2022-10-16T07:32:26;100153.31;;;23.85;37.43
7966;BME280;4028;43.272;26.932;2022-10-16T07:34:52;100165.41;;;24.09;37.30
7966;BME280;4028;43.272;26.932;2022-10-16T07:37:18;100168.31;;;24.14;36.32
7966;BME280;4028;43.272;26.932;2022-10-16T07:39:44;100164.75;;;24.00;35.46
7966;BME280;4028;43.272;26.932;2022-10-16T07:42:09;100162.09;;;24.07;35.58
7966;BME280;4028;43.272;26.932;2022-10-16T07:44:35;100149.78;;;23.84;35.51
7966;BME280;4028;43.272;26.932;2022-10-16T07:47:00;100151.25;;;24.00;35.37
7966;BME280;4028;43.272;26.932;2022-10-16T07:49:26;100154.78;;;24.34;35.39
7966;BME280;4028;43.272;26.932;2022-10-16T07:51:51;100160.03;;;24.35;34.82
7966;BME280;4028;43.272;26.932;2022-10-16T07:54:17;100158.56;;;24.40;34.66
7966;BME280;4028;43.272;26.932;2022-10-16T07:56:42;100157.50;;;24.01;35.42
7966;BME280;4028;43.272;26.932;2022-10-16T07:59:08;100158.78;;;24.45;36.34
7966;BME280;4028;43.272;26.932;2022-10-16T08:01:33;100159.78;;;24.70;36.19
7966;BME280;4028;43.272;26.932;2022-10-16T08:03:59;100163.31;;;24.31;36.56
7966;BME280;4028;43.272;26.932;2022-10-16T08:06:24;100153.34;;;24.11;36.46
7966;BME280;4028;43.272;26.932;2022-10-16T08:08:50;100164.13;;;23.85;36.62
7966;BME280;4028;43.272;26.932;2022-10-16T08:11:15;100185.59;;;24.33;36.53
7966;BME280;4028;43.272;26.932;2022-10-16T08:13:41;100183.50;;;24.61;36.80
7966;BME280;4028;43.272;26.932;2022-10-16T08:16:07;100171.59;;;24.82;36.06
7966;BME280;4028;43.272;26.932;2022-10-16T08:18:34;100177.00;;;25.09;35.44
7966;BME280;4028;43.272;26.932;2022-10-16T08:21:01;100176.44;;;24.41;33.81
7966;BME280;4028;43.272;26.932;2022-10-16T08:23:27;100172.53;;;24.36;33.97
7966;BME280;4028;43.272;26.932;2022-10-16T08:25:53;100179.16;;;24.41;33.10
7966;BME280;4028;43.272;26.932;2022-10-16T08:30:45;100177.91;;;24.50;32.33
7966;BME280;4028;43.272;26.932;2022-10-16T08:33:10;100177.47;;;24.33;32.61
7966;BME280;4028;43.272;26.932;2022-10-16T08:35:36;100183.06;;;23.92;33.39
7966;BME280;4028;43.272;26.932;2022-10-16T08:38:05;100172.03;;;23.93;33.53
7966;BME280;4028;43.272;26.932;2022-10-16T08:40:32;100170.81;;;24.16;33.13
7966;BME280;4028;43.272;26.932;2022-10-16T08:51:03;100174.97;;;24.05;32.76
7966;BME280;4028;43.272;26.932;2022-10-16T08:53:57;100184.13;;;23.97;32.44
7966;BME280;4028;43.272;26.932;2022-10-16T08:56:24;100186.16;;;23.75;33.21
7966;BME280;4028;43.272;26.932;2022-10-16T08:58:51;100190.97;;;23.93;32.90
7966;BME280;4028;43.272;26.932;2022-10-16T09:01:19;100184.13;;;24.17;32.39
7966;BME280;4028;43.272;26.932;2022-10-16T09:06:50;100181.22;;;24.12;32.82
7966;BME280;4028;43.272;26.932;2022-10-16T09:14:44;100177.88;;;24.10;32.02
7966;BME280;4028;43.272;26.932;2022-10-16T09:19:51;100181.19;;;23.99;32.37
7966;BME280;4028;43.272;26.932;2022-10-16T09:22:21;100188.50;;;24.31;31.70
7966;BME280;4028;43.272;26.932;2022-10-16T09:24:51;100164.84;;;23.39;32.58
7966;BME280;4028;43.272;26.932;2022-10-16T09:27:17;100180.06;;;23.60;32.72
7966;BME280;4028;43.272;26.932;2022-10-16T09:29:42;100182.47;;;23.42;32.74
7966;BME280;4028;43.272;26.932;2022-10-16T09:32:17;100171.38;;;23.71;32.80
7966;BME280;4028;43.272;26.932;2022-10-16T09:34:48;100181.38;;;23.77;32.78
7966;BME280;4028;43.272;26.932;2022-10-16T09:37:18;100172.03;;;24.00;31.80
7966;BME280;4028;43.272;26.932;2022-10-16T09:39:52;100164.75;;;24.00;32.02
7966;BME280;4028;43.272;26.932;2022-10-16T09:42:36;100172.47;;;24.03;32.07
7966;BME280;4028;43.272;26.932;2022-10-16T09:45:03;100161.25;;;24.06;31.63
7966;BME280;4028;43.272;26.932;2022-10-16T09:47:30;100167.25;;;23.89;32.28
7966;BME280;4028;43.272;26.932;2022-10-16T09:49:59;100171.22;;;24.19;31.92
7966;BME280;4028;43.272;26.932;2022-10-16T09:52:28;100167.06;;;24.30;31.26
7966;BME280;4028;43.272;26.932;2022-10-16T09:54:57;100163.13;;;24.46;31.23
7966;BME280;4028;43.272;26.932;2022-10-16T09:57:25;100160.66;;;24.44;31.88
7966;BME280;4028;43.272;26.932;2022-10-16T09:59:56;100163.78;;;24.48;31.77
7966;BME280;4028;43.272;26.932;2022-10-16T10:02:35;100158.94;;;23.90;31.85
7966;BME280;4028;43.272;26.932;2022-10-16T10:05:05;100146.28;;;23.97;31.86
7966;BME280;4028;43.272;26.932;2022-10-16T10:07:33;100155.59;;;23.95;32.15
7966;BME280;4028;43.272;26.932;2022-10-16T10:10:03;100158.13;;;24.23;31.43
7966;BME280;4028;43.272;26.932;2022-10-16T10:12:31;100162.09;;;24.33;31.46
7966;BME280;4028;43.272;26.932;2022-10-16T10:15:11;100160.38;;;23.73;31.75
7966;BME280;4028;43.272;26.932;2022-10-16T10:18:19;100160.63;;;24.11;31.38
7966;BME280;4028;43.272;26.932;2022-10-16T10:20:57;100152.50;;;24.24;30.85
7966;BME280;4028;43.272;26.932;2022-10-16T10:23:25;100146.69;;;24.21;31.06
7966;BME280;4028;43.272;26.932;2022-10-16T10:31:29;100156.28;;;24.43;31.04
7966;BME280;4028;43.272;26.932;2022-10-16T10:34:07;100145.38;;;24.76;29.87
7966;BME280;4028;43.272;26.932;2022-10-16T10:36:41;100145.25;;;24.45;30.41
7966;BME280;4028;43.272;26.932;2022-10-16T10:39:31;100151.25;;;24.33;30.26
7966;BME280;4028;43.272;26.932;2022-10-16T10:48:04;100136.38;;;24.96;29.13
7966;BME280;4028;43.272;26.932;2022-10-16T10:50:53;100136.94;;;25.18;29.48
7966;BME280;4028;43.272;26.932;2022-10-16T11:01:55;100125.38;;;25.42;28.44
7966;BME280;4028;43.272;26.932;2022-10-16T11:04:32;100122.25;;;24.87;29.22
7966;BME280;4028;43.272;26.932;2022-10-16T11:07:02;100120.84;;;24.64;28.79
7966;BME280;4028;43.272;26.932;2022-10-16T11:09:42;100115.91;;;25.13;28.94
7966;BME280;4028;43.272;26.932;2022-10-16T11:12:22;100128.03;;;24.97;29.56
7966;BME280;4028;43.272;26.932;2022-10-16T11:17:41;100120.00;;;25.67;28.74
7966;BME280;4028;43.272;26.932;2022-10-16T11:20:13;100129.72;;;24.92;28.07
7966;BME280;4028;43.272;26.932;2022-10-16T11:22:47;100139.22;;;24.36;28.80
7966;BME280;4028;43.272;26.932;2022-10-16T11:25:21;100126.28;;;24.58;29.40
7966;BME280;4028;43.272;26.932;2022-10-16T11:28:03;100130.66;;;24.32;29.01
7966;BME280;4028;43.272;26.932;2022-10-16T11:33:41;100118.72;;;25.38;28.40
7966;BME280;4028;43.272;26.932;2022-10-16T11:36:16;100129.63;;;25.63;28.10
7966;BME280;4028;43.272;26.932;2022-10-16T11:43:50;100126.00;;;25.37;27.83
7966;BME280;4028;43.272;26.932;2022-10-16T11:46:21;100133.03;;;25.00;28.74
7966;BME280;4028;43.272;26.932;2022-10-16T11:48:50;100128.88;;;25.04;28.54
7966;BME280;4028;43.272;26.932;2022-10-16T11:51:33;100131.00;;;24.89;28.40
7966;BME280;4028;43.272;26.932;2022-10-16T11:54:14;100134.22;;;24.40;28.87
7966;BME280;4028;43.272;26.932;2022-10-16T11:56:43;100140.63;;;23.18;33.42
7966;BME280;4028;43.272;26.932;2022-10-16T12:05:14;100136.34;;;22.54;33.75
7966;BME280;4028;43.272;26.932;2022-10-16T12:08:09;100138.03;;;22.27;34.07
7966;BME280;4028;43.272;26.932;2022-10-16T12:10:34;100131.47;;;21.93;35.60
7966;BME280;4028;43.272;26.932;2022-10-16T12:16:08;100144.34;;;21.04;37.28
7966;BME280;4028;43.272;26.932;2022-10-16T12:18:45;100149.41;;;21.28;36.58
7966;BME280;4028;43.272;26.932;2022-10-16T12:21:16;100147.78;;;20.98;35.25
7966;BME280;4028;43.272;26.932;2022-10-16T12:23:49;100153.81;;;21.00;35.48
7966;BME280;4028;43.272;26.932;2022-10-16T12:26:31;100162.09;;;20.84;35.24
7966;BME280;4028;43.272;26.932;2022-10-16T12:29:14;100150.28;;;20.99;35.91
7966;BME280;4028;43.272;26.932;2022-10-16T12:31:46;100153.63;;;20.87;35.12
7966;BME280;4028;43.272;26.932;2022-10-16T12:34:42;100143.88;;;21.00;35.18
7966;BME280;4028;43.272;26.932;2022-10-16T12:37:37;100152.03;;;20.92;35.35
7966;BME280;4028;43.272;26.932;2022-10-16T12:40:15;100146.28;;;21.10;34.59
7966;BME280;4028;43.272;26.932;2022-10-16T12:42:42;100138.50;;;21.30;35.58
7966;BME280;4028;43.272;26.932;2022-10-16T12:45:29;100146.28;;;21.40;35.88
7966;BME280;4028;43.272;26.932;2022-10-16T12:47:57;100138.50;;;21.30;34.08
7966;BME280;4028;43.272;26.932;2022-10-16T12:50:26;100136.91;;;21.36;34.87
7966;BME280;4028;43.272;26.932;2022-10-16T12:52:52;100151.00;;;21.38;35.80
7966;BME280;4028;43.272;26.932;2022-10-16T12:55:20;100147.88;;;21.19;33.92
7966;BME280;4028;43.272;26.932;2022-10-16T13:00:35;100149.63;;;20.83;34.53
7966;BME280;4028;43.272;26.932;2022-10-16T13:09:05;100161.41;;;20.14;34.23
7966;BME280;4028;43.272;26.932;2022-10-16T13:25:33;100173.13;;;19.05;36.90
7966;BME280;4028;43.272;26.932;2022-10-16T13:28:10;100170.59;;;19.04;36.38
7966;BME280;4028;43.272;26.932;2022-10-16T13:30:40;100163.44;;;18.96;36.88
7966;BME280;4028;43.272;26.932;2022-10-16T13:33:30;100161.97;;;18.77;36.87
7966;BME280;4028;43.272;26.932;2022-10-16T13:35:57;100162.81;;;18.78;37.29
7966;BME280;4028;43.272;26.932;2022-10-16T13:38:26;100164.50;;;18.79;37.02
7966;BME280;4028;43.272;26.932;2022-10-16T13:41:13;100169.50;;;18.82;37.21
7966;BME280;4028;43.272;26.932;2022-10-16T13:43:46;100164.66;;;18.77;36.39
7966;BME280;4028;43.272;26.932;2022-10-16T13:46:19;100159.44;;;18.67;36.66
7966;BME280;4028;43.272;26.932;2022-10-16T13:49:03;100145.41;;;18.57;36.88
7966;BME280;4028;43.272;26.932;2022-10-16T13:51:31;100147.63;;;18.37;37.38
7966;BME280;4028;43.272;26.932;2022-10-16T13:53:57;100152.47;;;18.42;36.75
7966;BME280;4028;43.272;26.932;2022-10-16T13:56:27;100163.53;;;18.39;37.41
7966;BME280;4028;43.272;26.932;2022-10-16T13:59:05;100171.25;;;18.34;36.55
7966;BME280;4028;43.272;26.932;2022-10-16T14:01:33;100177.13;;;18.29;36.87
7966;BME280;4028;43.272;26.932;2022-10-16T14:04:06;100171.09;;;18.27;36.57
7966;BME280;4028;43.272;26.932;2022-10-16T14:06:35;100177.63;;;18.25;36.54
7966;BME280;4028;43.272;26.932;2022-10-16T14:09:23;100180.31;;;18.08;36.77
7966;BME280;4028;43.272;26.932;2022-10-16T14:11:51;100180.47;;;18.07;36.67
7966;BME280;4028;43.272;26.932;2022-10-16T14:14:19;100179.63;;;18.06;36.94
7966;BME280;4028;43.272;26.932;2022-10-16T14:16:45;100182.66;;;18.03;37.75
7966;BME280;4028;43.272;26.932;2022-10-16T14:19:23;100178.31;;;18.02;37.81
7966;BME280;4028;43.272;26.932;2022-10-16T14:21:51;100186.84;;;17.98;37.44
7966;BME280;4028;43.272;26.932;2022-10-16T14:24:31;100191.84;;;17.92;38.07
7966;BME280;4028;43.272;26.932;2022-10-16T14:26:57;100186.63;;;17.91;38.01
7966;BME280;4028;43.272;26.932;2022-10-16T14:29:25;100192.31;;;17.96;37.48
7966;BME280;4028;43.272;26.932;2022-10-16T14:32:22;100189.97;;;17.85;37.29
7966;BME280;4028;43.272;26.932;2022-10-16T14:34:53;100195.66;;;17.74;37.29
7966;BME280;4028;43.272;26.932;2022-10-16T14:37:24;100190.59;;;17.71;37.47
7966;BME280;4028;43.272;26.932;2022-10-16T14:39:50;100195.09;;;17.62;37.98
7966;BME280;4028;43.272;26.932;2022-10-16T14:42:18;100205.63;;;17.63;38.40
7966;BME280;4028;43.272;26.932;2022-10-16T14:44:44;100184.38;;;17.46;37.83
7966;BME280;4028;43.272;26.932;2022-10-16T14:47:17;100196.56;;;17.48;38.24
7966;BME280;4028;43.272;26.932;2022-10-16T14:49:47;100191.03;;;17.41;38.25
7966;BME280;4028;43.272;26.932;2022-10-16T14:52:13;100193.84;;;17.40;38.33
7966;BME280;4028;43.272;26.932;2022-10-16T14:54:40;100202.19;;;17.29;38.67
7966;BME280;4028;43.272;26.932;2022-10-16T14:57:16;100208.72;;;17.26;39.32